AirNav  
 
 1014 users online  

2VA4 Winchester Medical Center Heliport
Winchester, Virginia, USA

GOING TO WINCHESTER?


FAA INFORMATION EFFECTIVE 25 MARCH 2021

Location

FAA Identifier: 2VA4
Lat/Long: 39-11-43.5600N 078-11-31.2000W
39-11.726000N 078-11.520000W
39.1954333,-78.1920000
(estimated)
Elevation: 831 ft. / 253 m (estimated)
Variation: 09W (2015)
From city: 2 miles N of WINCHESTER, VA
Time zone: UTC -4 (UTC -5 during Standard Time)
Zip code: 22601

Heliport Operations

Heliport use: Private use, MEDICAL USE.
Activation date: 07/1990
Control tower: no
ARTCC: WASHINGTON CENTER
FSS: LEESBURG FLIGHT SERVICE STATION
Attendance: CONTINUOUS
Wind indicator: yes
Segmented circle: no
Lights: FOR PERIMETER LGTS CALL 703-722-8170.

Heliport Communications

WX AWOS-3 at OKV (4 nm SE): 124.85 (540-662-6970)
WX ASOS at MRB (16 nm NE): 119.925 (304-264-0988)
WX AWOS-3 at FRR (17 nm S): 121.85 (540-635-5377)

Nearby radio navigation aids

VOR radial/distance  VOR name  Freq  Var
MRBr241/19.6MARTINSBURG VORTAC112.1007W
LDNr008/20.5LINDEN VORTAC114.3006W
HGRr214/(33.9)HAGERSTOWN VOR109.8007W
CSNr341/36.6CASANOVA VORTAC116.3006W
ESLr099/37.1KESSEL VOR/DME110.8006W
AMLr303/37.2ARMEL VOR/DME113.5008W

 
NDB name  Hdg/Dist  Freq  Var  ID
CAVERNS033/32.524509WLUA .-.. ..- .-

Heliport Services

Runway Information

Helipad H1

Dimensions: 58 x 58 ft. / 18 x 18 m
Surface: concrete
Runway edge lights: PERI
Latitude: 39-11.726000N
Longitude: 078-11.520000W
Elevation: 831.0 ft.
Traffic pattern: leftleft

Heliport Ownership and Management from official FAA records

Ownership: Privately-owned
Owner: WINCHESTER MEDICAL CENTER
P.O. BOX 3340 1840 AMHERST ST
WINCHESTER, VA 22601
Phone 703-722-8000
Manager: GLENN PRICE
1836 AMHERST ST, SUITE 020
WINCHESTER, VA 22601
Phone (540) 536-4542

Additional Remarks

A52-H1 18' BLDG 60' S; 71' BLDG 360' S.
FOR CD CTC POTOMAC APCH AT 866-709-4993.

Instrument Procedures

There are no published instrument procedures at 2VA4.

Some nearby airports with instrument procedures:

KOKV - Winchester Regional Airport (4 nm SE)
KMRB - Eastern WV Regional Airport/Shepherd Field (16 nm NE)
9VA5 - Bluegrass Heliport (16 nm SE)
KFRR - Front Royal-Warren County Airport (17 nm S)
2VG2 - Upperville Airport (20 nm SE)
 
Loc | Ops | Rwys | IFR | FBO | Links
Com | Nav | Svcs | Stats | Notes
Area around 2VA4 (Winchester Medical Center Heliport)
 
Road maps at: MapQuest Bing Google
 
Aerial photo
No photo
 
Sectional chart

 
Airport distance calculator
Flying to Winchester Medical Center Heliport? Find the distance to fly.

From to 2VA4

Sunrise and sunset
Times for 11-Apr-2021
 Local
(UTC-4)
 Zulu
(UTC)
Morning civil twilight06:1510:15
Sunrise06:4310:43
Sunset19:4523:45
Evening civil twilight20:1200:12

Current date and time
Zulu (UTC)  12-Apr-2021 00:12:12
Local (UTC-4)  11-Apr-2021 20:12:12
 
METAR
KOKV 
4nm SE 
112355Z AUTO 31009KT 10SM SCT090 BKN110 16/10 A2947 RMK AO2
KMRB 
16nm NE 
112353Z AUTO 31008KT 10SM FEW065 SCT095 19/09 A2946 RMK AO2 WSHFT 2326 LTG DSNT N AND E SLP974 T01890094 10239 20189 53015
KFRR 
17nm S 
112355Z AUTO 36006KT 10SM OVC090 20/06 A2947 RMK AO1
TAF
KMRB 
16nm NE 
112051Z 1121/1218 18007KT P6SM VCTS BKN050CB FM120000 24005KT P6SM SCT060 FM120400 VRB03KT P6SM BKN100 FM121600 27006KT P6SM VCSH BKN050
NOTAMs
Click for the latest NOTAMs
NOTAMs are issued by the DoD/FAA and will open in a separate window not controlled by AirNav.

 

 
 

Would you like to see your business listed on this page?

 If your business provides an interesting product or service to pilots, flight crews, aircraft, or users of the Winchester Medical Center Heliport, you should consider listing it here.  To start the listing process, click on the button below
 
Add a business
 

Other Pages about Winchester Medical Center Heliport

Update a link
 
Copyright © AirNav, LLC. All rights reserved. Privacy Policy  Contact